sensor_id;sensor_type;location;lat;lon;timestamp;P1;durP1;ratioP1;P2;durP2;ratioP2
52470;SDS011;38382;53.160;7.026;2023-02-08T00:00:50;30.90;;;17.10;;
52470;SDS011;38382;53.160;7.026;2023-02-08T00:03:15;29.75;;;17.42;;
52470;SDS011;38382;53.160;7.026;2023-02-08T00:05:41;29.10;;;15.88;;
52470;SDS011;38382;53.160;7.026;2023-02-08T00:08:07;32.13;;;18.70;;
52470;SDS011;38382;53.160;7.026;2023-02-08T00:10:33;29.92;;;16.05;;
52470;SDS011;38382;53.160;7.026;2023-02-08T00:13:00;29.63;;;16.65;;
52470;SDS011;38382;53.160;7.026;2023-02-08T00:15:25;30.02;;;16.75;;
52470;SDS011;38382;53.160;7.026;2023-02-08T00:17:51;34.17;;;16.30;;
52470;SDS011;38382;53.160;7.026;2023-02-08T00:20:17;32.17;;;17.67;;
52470;SDS011;38382;53.160;7.026;2023-02-08T00:22:43;33.28;;;17.50;;
52470;SDS011;38382;53.160;7.026;2023-02-08T00:25:08;32.72;;;17.60;;
52470;SDS011;38382;53.160;7.026;2023-02-08T00:27:34;34.10;;;18.08;;
52470;SDS011;38382;53.160;7.026;2023-02-08T00:30:00;32.67;;;18.48;;
52470;SDS011;38382;53.160;7.026;2023-02-08T00:32:26;33.22;;;18.55;;
52470;SDS011;38382;53.160;7.026;2023-02-08T00:34:52;31.70;;;18.40;;
52470;SDS011;38382;53.160;7.026;2023-02-08T00:37:17;31.20;;;18.83;;
52470;SDS011;38382;53.160;7.026;2023-02-08T00:39:43;30.25;;;18.27;;
52470;SDS011;38382;53.160;7.026;2023-02-08T00:42:09;31.23;;;19.38;;
52470;SDS011;38382;53.160;7.026;2023-02-08T00:44:35;31.05;;;17.88;;
52470;SDS011;38382;53.160;7.026;2023-02-08T00:47:00;30.52;;;17.55;;
52470;SDS011;38382;53.160;7.026;2023-02-08T00:49:26;30.35;;;18.30;;
52470;SDS011;38382;53.160;7.026;2023-02-08T00:51:52;31.13;;;17.58;;
52470;SDS011;38382;53.160;7.026;2023-02-08T00:54:18;32.08;;;17.33;;
52470;SDS011;38382;53.160;7.026;2023-02-08T00:56:45;32.15;;;18.83;;
52470;SDS011;38382;53.160;7.026;2023-02-08T00:59:11;29.88;;;18.08;;
52470;SDS011;38382;53.160;7.026;2023-02-08T01:01:37;30.77;;;17.95;;
52470;SDS011;38382;53.160;7.026;2023-02-08T01:04:04;27.67;;;16.90;;
52470;SDS011;38382;53.160;7.026;2023-02-08T01:06:30;30.65;;;17.15;;
52470;SDS011;38382;53.160;7.026;2023-02-08T01:08:56;32.80;;;17.40;;
52470;SDS011;38382;53.160;7.026;2023-02-08T01:11:22;31.10;;;18.05;;
52470;SDS011;38382;53.160;7.026;2023-02-08T01:13:50;29.08;;;17.02;;
52470;SDS011;38382;53.160;7.026;2023-02-08T01:16:25;35.42;;;17.92;;
52470;SDS011;38382;53.160;7.026;2023-02-08T01:18:53;31.92;;;17.50;;
52470;SDS011;38382;53.160;7.026;2023-02-08T01:21:22;30.23;;;17.38;;
52470;SDS011;38382;53.160;7.026;2023-02-08T01:23:49;29.73;;;18.13;;
52470;SDS011;38382;53.160;7.026;2023-02-08T01:26:16;30.58;;;17.67;;
52470;SDS011;38382;53.160;7.026;2023-02-08T01:28:42;32.70;;;18.05;;
52470;SDS011;38382;53.160;7.026;2023-02-08T01:31:09;32.63;;;18.63;;
52470;SDS011;38382;53.160;7.026;2023-02-08T01:33:39;31.27;;;18.00;;
52470;SDS011;38382;53.160;7.026;2023-02-08T01:36:06;30.98;;;17.13;;
52470;SDS011;38382;53.160;7.026;2023-02-08T01:38:33;28.90;;;17.40;;
52470;SDS011;38382;53.160;7.026;2023-02-08T01:40:59;32.22;;;18.35;;
52470;SDS011;38382;53.160;7.026;2023-02-08T01:43:26;32.35;;;18.40;;
52470;SDS011;38382;53.160;7.026;2023-02-08T01:45:54;30.77;;;18.55;;
52470;SDS011;38382;53.160;7.026;2023-02-08T01:48:28;33.33;;;19.05;;
52470;SDS011;38382;53.160;7.026;2023-02-08T01:51:05;36.22;;;19.38;;
52470;SDS011;38382;53.160;7.026;2023-02-08T01:53:35;38.90;;;19.98;;
52470;SDS011;38382;53.160;7.026;2023-02-08T01:56:03;33.50;;;18.80;;
52470;SDS011;38382;53.160;7.026;2023-02-08T01:58:34;34.78;;;19.42;;
52470;SDS011;38382;53.160;7.026;2023-02-08T02:01:03;33.78;;;18.83;;
52470;SDS011;38382;53.160;7.026;2023-02-08T02:03:30;36.42;;;19.75;;
52470;SDS011;38382;53.160;7.026;2023-02-08T02:05:56;32.28;;;19.00;;
52470;SDS011;38382;53.160;7.026;2023-02-08T02:08:30;33.28;;;18.40;;
52470;SDS011;38382;53.160;7.026;2023-02-08T02:10:56;37.08;;;19.25;;
52470;SDS011;38382;53.160;7.026;2023-02-08T02:13:22;34.72;;;18.70;;
52470;SDS011;38382;53.160;7.026;2023-02-08T02:15:50;32.63;;;18.48;;
52470;SDS011;38382;53.160;7.026;2023-02-08T02:18:24;34.63;;;18.13;;
52470;SDS011;38382;53.160;7.026;2023-02-08T02:23:52;31.75;;;17.63;;
52470;SDS011;38382;53.160;7.026;2023-02-08T02:35:18;33.10;;;16.98;;
52470;SDS011;38382;53.160;7.026;2023-02-08T02:40:36;34.38;;;17.40;;
52470;SDS011;38382;53.160;7.026;2023-02-08T02:48:41;32.22;;;18.23;;
52470;SDS011;38382;53.160;7.026;2023-02-08T02:51:18;33.67;;;19.52;;
52470;SDS011;38382;53.160;7.026;2023-02-08T02:53:53;31.55;;;18.77;;
52470;SDS011;38382;53.160;7.026;2023-02-08T02:56:28;33.45;;;19.38;;
52470;SDS011;38382;53.160;7.026;2023-02-08T02:59:00;32.40;;;19.48;;
52470;SDS011;38382;53.160;7.026;2023-02-08T03:01:30;38.35;;;18.08;;
52470;SDS011;38382;53.160;7.026;2023-02-08T03:03:56;34.08;;;19.45;;
52470;SDS011;38382;53.160;7.026;2023-02-08T03:12:21;37.20;;;19.45;;
52470;SDS011;38382;53.160;7.026;2023-02-08T03:20:23;34.28;;;19.00;;
52470;SDS011;38382;53.160;7.026;2023-02-08T03:30:53;36.72;;;19.30;;
52470;SDS011;38382;53.160;7.026;2023-02-08T03:33:36;37.97;;;19.88;;
52470;SDS011;38382;53.160;7.026;2023-02-08T03:39:00;33.80;;;19.42;;
52470;SDS011;38382;53.160;7.026;2023-02-08T03:41:32;34.17;;;19.27;;
52470;SDS011;38382;53.160;7.026;2023-02-08T03:44:13;39.28;;;20.50;;
52470;SDS011;38382;53.160;7.026;2023-02-08T03:46:46;38.97;;;19.83;;
52470;SDS011;38382;53.160;7.026;2023-02-08T03:49:19;38.47;;;20.17;;
52470;SDS011;38382;53.160;7.026;2023-02-08T03:51:47;39.97;;;20.63;;
52470;SDS011;38382;53.160;7.026;2023-02-08T03:54:18;39.15;;;21.17;;
52470;SDS011;38382;53.160;7.026;2023-02-08T03:56:53;34.72;;;19.85;;
52470;SDS011;38382;53.160;7.026;2023-02-08T03:59:30;38.15;;;20.00;;
52470;SDS011;38382;53.160;7.026;2023-02-08T04:02:00;37.67;;;19.33;;
52470;SDS011;38382;53.160;7.026;2023-02-08T04:04:30;33.97;;;19.42;;
52470;SDS011;38382;53.160;7.026;2023-02-08T04:06:59;33.38;;;18.45;;
52470;SDS011;38382;53.160;7.026;2023-02-08T04:09:24;33.67;;;19.70;;
52470;SDS011;38382;53.160;7.026;2023-02-08T04:11:50;40.63;;;19.50;;
52470;SDS011;38382;53.160;7.026;2023-02-08T04:14:16;33.33;;;18.40;;
52470;SDS011;38382;53.160;7.026;2023-02-08T04:16:42;36.80;;;19.30;;
52470;SDS011;38382;53.160;7.026;2023-02-08T04:19:07;40.15;;;20.60;;
52470;SDS011;38382;53.160;7.026;2023-02-08T04:21:33;34.72;;;19.30;;
52470;SDS011;38382;53.160;7.026;2023-02-08T04:23:59;34.13;;;19.42;;
52470;SDS011;38382;53.160;7.026;2023-02-08T04:26:25;37.95;;;19.60;;
52470;SDS011;38382;53.160;7.026;2023-02-08T04:28:54;36.80;;;18.98;;
52470;SDS011;38382;53.160;7.026;2023-02-08T04:31:19;36.42;;;21.10;;
52470;SDS011;38382;53.160;7.026;2023-02-08T04:33:45;35.13;;;19.85;;
52470;SDS011;38382;53.160;7.026;2023-02-08T04:36:11;40.08;;;20.88;;
52470;SDS011;38382;53.160;7.026;2023-02-08T04:38:37;36.28;;;19.92;;
52470;SDS011;38382;53.160;7.026;2023-02-08T04:41:02;35.42;;;20.42;;
52470;SDS011;38382;53.160;7.026;2023-02-08T05:58:14;44.42;;;21.50;;
52470;SDS011;38382;53.160;7.026;2023-02-08T06:00:40;42.15;;;21.45;;
52470;SDS011;38382;53.160;7.026;2023-02-08T06:03:06;36.33;;;20.30;;
52470;SDS011;38382;53.160;7.026;2023-02-08T06:13:00;38.75;;;20.73;;
52470;SDS011;38382;53.160;7.026;2023-02-08T06:15:26;46.05;;;21.90;;
52470;SDS011;38382;53.160;7.026;2023-02-08T06:25:12;44.80;;;20.65;;
52470;SDS011;38382;53.160;7.026;2023-02-08T06:27:38;43.90;;;21.67;;
52470;SDS011;38382;53.160;7.026;2023-02-08T06:30:04;50.22;;;23.92;;
52470;SDS011;38382;53.160;7.026;2023-02-08T06:32:30;42.97;;;22.77;;
52470;SDS011;38382;53.160;7.026;2023-02-08T06:38:08;46.80;;;24.00;;
52470;SDS011;38382;53.160;7.026;2023-02-08T06:54:55;47.08;;;22.52;;
52470;SDS011;38382;53.160;7.026;2023-02-08T06:57:38;54.55;;;24.63;;
52470;SDS011;38382;53.160;7.026;2023-02-08T07:00:04;46.38;;;23.35;;
52470;SDS011;38382;53.160;7.026;2023-02-08T07:02:30;51.60;;;24.83;;
52470;SDS011;38382;53.160;7.026;2023-02-08T07:04:57;51.17;;;24.48;;
52470;SDS011;38382;53.160;7.026;2023-02-08T07:07:22;51.05;;;24.77;;
52470;SDS011;38382;53.160;7.026;2023-02-08T07:09:48;48.75;;;24.70;;
52470;SDS011;38382;53.160;7.026;2023-02-08T07:12:14;49.15;;;23.63;;
52470;SDS011;38382;53.160;7.026;2023-02-08T07:14:40;46.90;;;23.42;;
52470;SDS011;38382;53.160;7.026;2023-02-08T07:17:10;47.28;;;23.02;;
52470;SDS011;38382;53.160;7.026;2023-02-08T07:19:36;45.67;;;22.17;;
52470;SDS011;38382;53.160;7.026;2023-02-08T07:22:02;46.25;;;22.75;;
52470;SDS011;38382;53.160;7.026;2023-02-08T07:24:36;48.40;;;24.08;;
52470;SDS011;38382;53.160;7.026;2023-02-08T07:27:03;49.35;;;22.75;;
52470;SDS011;38382;53.160;7.026;2023-02-08T07:29:29;43.33;;;22.92;;
52470;SDS011;38382;53.160;7.026;2023-02-08T07:31:56;52.05;;;23.48;;
52470;SDS011;38382;53.160;7.026;2023-02-08T07:34:23;52.25;;;24.02;;
52470;SDS011;38382;53.160;7.026;2023-02-08T07:36:50;45.28;;;22.98;;
52470;SDS011;38382;53.160;7.026;2023-02-08T07:39:15;50.72;;;23.02;;
52470;SDS011;38382;53.160;7.026;2023-02-08T07:41:41;50.63;;;25.15;;
52470;SDS011;38382;53.160;7.026;2023-02-08T07:44:08;48.88;;;23.48;;
52470;SDS011;38382;53.160;7.026;2023-02-08T07:46:33;50.70;;;24.42;;
52470;SDS011;38382;53.160;7.026;2023-02-08T07:48:59;47.17;;;23.25;;
52470;SDS011;38382;53.160;7.026;2023-02-08T07:51:25;47.10;;;23.77;;
52470;SDS011;38382;53.160;7.026;2023-02-08T07:53:51;50.25;;;24.55;;
52470;SDS011;38382;53.160;7.026;2023-02-08T07:56:17;51.78;;;24.33;;
52470;SDS011;38382;53.160;7.026;2023-02-08T07:58:42;52.58;;;23.58;;
52470;SDS011;38382;53.160;7.026;2023-02-08T08:01:08;48.15;;;24.95;;
52470;SDS011;38382;53.160;7.026;2023-02-08T08:03:35;51.53;;;24.00;;
52470;SDS011;38382;53.160;7.026;2023-02-08T08:06:00;50.50;;;24.52;;
52470;SDS011;38382;53.160;7.026;2023-02-08T08:08:26;47.55;;;23.98;;
52470;SDS011;38382;53.160;7.026;2023-02-08T08:10:52;49.53;;;23.83;;
52470;SDS011;38382;53.160;7.026;2023-02-08T08:13:18;49.58;;;24.52;;
52470;SDS011;38382;53.160;7.026;2023-02-08T08:15:45;47.03;;;26.20;;
52470;SDS011;38382;53.160;7.026;2023-02-08T08:18:11;51.80;;;24.98;;
52470;SDS011;38382;53.160;7.026;2023-02-08T08:20:36;45.60;;;23.75;;
52470;SDS011;38382;53.160;7.026;2023-02-08T08:23:02;52.25;;;24.00;;
52470;SDS011;38382;53.160;7.026;2023-02-08T08:25:28;49.10;;;25.23;;
52470;SDS011;38382;53.160;7.026;2023-02-08T08:27:54;48.35;;;25.05;;
52470;SDS011;38382;53.160;7.026;2023-02-08T08:30:20;49.92;;;26.77;;
52470;SDS011;38382;53.160;7.026;2023-02-08T08:32:46;55.58;;;24.73;;
52470;SDS011;38382;53.160;7.026;2023-02-08T08:35:12;53.38;;;25.60;;
52470;SDS011;38382;53.160;7.026;2023-02-08T08:37:38;44.65;;;24.67;;
52470;SDS011;38382;53.160;7.026;2023-02-08T08:40:04;49.97;;;25.08;;
52470;SDS011;38382;53.160;7.026;2023-02-08T08:42:31;55.28;;;24.13;;
52470;SDS011;38382;53.160;7.026;2023-02-08T08:44:58;50.03;;;23.80;;
52470;SDS011;38382;53.160;7.026;2023-02-08T08:47:24;57.80;;;23.50;;
52470;SDS011;38382;53.160;7.026;2023-02-08T08:49:50;47.28;;;22.83;;
52470;SDS011;38382;53.160;7.026;2023-02-08T08:52:15;46.15;;;23.95;;
52470;SDS011;38382;53.160;7.026;2023-02-08T08:54:41;51.58;;;23.92;;
52470;SDS011;38382;53.160;7.026;2023-02-08T08:57:07;40.97;;;23.20;;
52470;SDS011;38382;53.160;7.026;2023-02-08T08:59:33;43.35;;;21.90;;
52470;SDS011;38382;53.160;7.026;2023-02-08T09:01:59;39.97;;;21.15;;
52470;SDS011;38382;53.160;7.026;2023-02-08T09:04:25;41.80;;;21.08;;
52470;SDS011;38382;53.160;7.026;2023-02-08T09:06:52;40.15;;;21.77;;
52470;SDS011;38382;53.160;7.026;2023-02-08T09:09:18;41.70;;;21.77;;
52470;SDS011;38382;53.160;7.026;2023-02-08T09:11:45;42.47;;;20.50;;
52470;SDS011;38382;53.160;7.026;2023-02-08T09:14:11;42.80;;;21.73;;
52470;SDS011;38382;53.160;7.026;2023-02-08T09:16:38;41.58;;;22.23;;
52470;SDS011;38382;53.160;7.026;2023-02-08T09:19:06;42.00;;;21.98;;
52470;SDS011;38382;53.160;7.026;2023-02-08T09:21:34;40.65;;;21.25;;
52470;SDS011;38382;53.160;7.026;2023-02-08T09:24:00;40.30;;;21.38;;
52470;SDS011;38382;53.160;7.026;2023-02-08T09:26:27;40.17;;;20.60;;
52470;SDS011;38382;53.160;7.026;2023-02-08T09:28:52;40.33;;;21.48;;
52470;SDS011;38382;53.160;7.026;2023-02-08T09:31:23;38.55;;;20.35;;
52470;SDS011;38382;53.160;7.026;2023-02-08T09:33:54;40.60;;;20.63;;
52470;SDS011;38382;53.160;7.026;2023-02-08T09:36:22;40.97;;;21.35;;
52470;SDS011;38382;53.160;7.026;2023-02-08T09:38:50;38.28;;;21.17;;
52470;SDS011;38382;53.160;7.026;2023-02-08T09:46:57;35.92;;;20.52;;
52470;SDS011;38382;53.160;7.026;2023-02-08T09:49:35;36.85;;;19.92;;
52470;SDS011;38382;53.160;7.026;2023-02-08T09:52:09;37.80;;;20.45;;
52470;SDS011;38382;53.160;7.026;2023-02-08T09:57:12;32.53;;;19.13;;
52470;SDS011;38382;53.160;7.026;2023-02-08T09:59:45;37.38;;;19.80;;
52470;SDS011;38382;53.160;7.026;2023-02-08T10:02:28;33.97;;;18.42;;
52470;SDS011;38382;53.160;7.026;2023-02-08T10:07:43;33.58;;;18.42;;
52470;SDS011;38382;53.160;7.026;2023-02-08T10:18:45;31.48;;;18.63;;
52470;SDS011;38382;53.160;7.026;2023-02-08T10:22:02;33.13;;;19.05;;
52470;SDS011;38382;53.160;7.026;2023-02-08T10:29:43;33.67;;;19.05;;
52470;SDS011;38382;53.160;7.026;2023-02-08T10:32:58;34.10;;;18.13;;
52470;SDS011;38382;53.160;7.026;2023-02-08T10:35:07;29.85;;;17.05;;
52470;SDS011;38382;53.160;7.026;2023-02-08T10:37:35;28.98;;;16.27;;
52470;SDS011;38382;53.160;7.026;2023-02-08T10:46:05;27.02;;;15.63;;
52470;SDS011;38382;53.160;7.026;2023-02-08T10:51:51;27.58;;;15.95;;
52470;SDS011;38382;53.160;7.026;2023-02-08T10:54:17;26.05;;;15.45;;
52470;SDS011;38382;53.160;7.026;2023-02-08T11:01:45;24.45;;;15.30;;
52470;SDS011;38382;53.160;7.026;2023-02-08T11:04:12;25.77;;;15.85;;
52470;SDS011;38382;53.160;7.026;2023-02-08T11:06:39;25.23;;;16.27;;
52470;SDS011;38382;53.160;7.026;2023-02-08T11:09:06;25.02;;;14.75;;
52470;SDS011;38382;53.160;7.026;2023-02-08T11:11:43;25.55;;;15.30;;
52470;SDS011;38382;53.160;7.026;2023-02-08T11:14:18;25.90;;;15.32;;
52470;SDS011;38382;53.160;7.026;2023-02-08T11:16:53;27.08;;;15.73;;
52470;SDS011;38382;53.160;7.026;2023-02-08T11:19:21;22.42;;;14.88;;
52470;SDS011;38382;53.160;7.026;2023-02-08T11:21:57;26.17;;;14.60;;
52470;SDS011;38382;53.160;7.026;2023-02-08T11:24:29;21.85;;;14.15;;
52470;SDS011;38382;53.160;7.026;2023-02-08T11:27:17;28.17;;;14.85;;
52470;SDS011;38382;53.160;7.026;2023-02-08T11:32:37;21.40;;;13.65;;
52470;SDS011;38382;53.160;7.026;2023-02-08T11:35:12;25.80;;;14.70;;
52470;SDS011;38382;53.160;7.026;2023-02-08T11:37:49;21.40;;;13.07;;
52470;SDS011;38382;53.160;7.026;2023-02-08T11:40:24;23.38;;;13.57;;
52470;SDS011;38382;53.160;7.026;2023-02-08T11:42:58;22.17;;;13.75;;
52470;SDS011;38382;53.160;7.026;2023-02-08T11:45:24;23.08;;;14.02;;
52470;SDS011;38382;53.160;7.026;2023-02-08T11:47:54;22.63;;;13.90;;
52470;SDS011;38382;53.160;7.026;2023-02-08T11:50:22;24.33;;;13.88;;
52470;SDS011;38382;53.160;7.026;2023-02-08T11:53:16;19.27;;;12.30;;
52470;SDS011;38382;53.160;7.026;2023-02-08T11:58:40;22.58;;;13.13;;
52470;SDS011;38382;53.160;7.026;2023-02-08T12:01:17;21.70;;;13.93;;
52470;SDS011;38382;53.160;7.026;2023-02-08T12:03:45;20.05;;;13.02;;
52470;SDS011;38382;53.160;7.026;2023-02-08T12:06:27;20.42;;;12.80;;
52470;SDS011;38382;53.160;7.026;2023-02-08T12:20:57;21.00;;;12.75;;
52470;SDS011;38382;53.160;7.026;2023-02-08T12:23:44;18.83;;;12.25;;
52470;SDS011;38382;53.160;7.026;2023-02-08T12:34:42;16.95;;;11.65;;
52470;SDS011;38382;53.160;7.026;2023-02-08T12:57:03;17.73;;;9.60;;
52470;SDS011;38382;53.160;7.026;2023-02-08T13:05:02;14.98;;;9.52;;
52470;SDS011;38382;53.160;7.026;2023-02-08T13:12:51;13.65;;;9.10;;
52470;SDS011;38382;53.160;7.026;2023-02-08T13:15:39;14.70;;;9.50;;
52470;SDS011;38382;53.160;7.026;2023-02-08T13:18:38;16.73;;;8.70;;
52470;SDS011;38382;53.160;7.026;2023-02-08T13:21:18;13.75;;;9.10;;
52470;SDS011;38382;53.160;7.026;2023-02-08T13:23:48;14.13;;;9.27;;
52470;SDS011;38382;53.160;7.026;2023-02-08T13:28:50;13.38;;;9.10;;
52470;SDS011;38382;53.160;7.026;2023-02-08T13:31:19;14.40;;;9.45;;
52470;SDS011;38382;53.160;7.026;2023-02-08T13:34:51;13.98;;;8.45;;
52470;SDS011;38382;53.160;7.026;2023-02-08T13:36:55;13.70;;;8.98;;
52470;SDS011;38382;53.160;7.026;2023-02-08T13:41:55;13.10;;;9.35;;
52470;SDS011;38382;53.160;7.026;2023-02-08T13:44:32;13.82;;;9.68;;
52470;SDS011;38382;53.160;7.026;2023-02-08T13:47:02;11.48;;;8.52;;
52470;SDS011;38382;53.160;7.026;2023-02-08T13:49:41;12.93;;;9.00;;
52470;SDS011;38382;53.160;7.026;2023-02-08T13:52:11;14.35;;;9.57;;
52470;SDS011;38382;53.160;7.026;2023-02-08T13:58:00;12.55;;;8.52;;
52470;SDS011;38382;53.160;7.026;2023-02-08T14:03:24;12.38;;;7.80;;
52470;SDS011;38382;53.160;7.026;2023-02-08T14:05:52;11.68;;;8.02;;
52470;SDS011;38382;53.160;7.026;2023-02-08T14:11:11;10.82;;;7.80;;
52470;SDS011;38382;53.160;7.026;2023-02-08T14:13:59;12.55;;;7.00;;
52470;SDS011;38382;53.160;7.026;2023-02-08T14:19:04;11.73;;;7.78;;
52470;SDS011;38382;53.160;7.026;2023-02-08T14:21:52;10.18;;;7.03;;
52470;SDS011;38382;53.160;7.026;2023-02-08T14:24:47;12.00;;;7.05;;
52470;SDS011;38382;53.160;7.026;2023-02-08T14:27:26;11.50;;;7.13;;
52470;SDS011;38382;53.160;7.026;2023-02-08T14:32:52;10.35;;;7.18;;
52470;SDS011;38382;53.160;7.026;2023-02-08T14:35:37;12.32;;;7.88;;
52470;SDS011;38382;53.160;7.026;2023-02-08T14:40:50;11.15;;;7.45;;
52470;SDS011;38382;53.160;7.026;2023-02-08T14:45:44;10.50;;;7.80;;
52470;SDS011;38382;53.160;7.026;2023-02-08T14:48:15;10.68;;;7.22;;
52470;SDS011;38382;53.160;7.026;2023-02-08T14:50:52;11.05;;;7.55;;
52470;SDS011;38382;53.160;7.026;2023-02-08T14:58:45;10.15;;;6.30;;
52470;SDS011;38382;53.160;7.026;2023-02-08T15:04:12;10.07;;;6.72;;
52470;SDS011;38382;53.160;7.026;2023-02-08T15:09:29;8.75;;;6.18;;
52470;SDS011;38382;53.160;7.026;2023-02-08T15:14:26;11.00;;;6.60;;
52470;SDS011;38382;53.160;7.026;2023-02-08T15:16:54;11.23;;;7.05;;
52470;SDS011;38382;53.160;7.026;2023-02-08T15:19:22;11.13;;;6.72;;
52470;SDS011;38382;53.160;7.026;2023-02-08T15:22:16;10.52;;;6.93;;
52470;SDS011;38382;53.160;7.026;2023-02-08T15:24:48;12.30;;;7.40;;
52470;SDS011;38382;53.160;7.026;2023-02-08T15:27:20;11.60;;;7.30;;
52470;SDS011;38382;53.160;7.026;2023-02-08T15:29:51;12.77;;;7.80;;
52470;SDS011;38382;53.160;7.026;2023-02-08T15:32:18;12.25;;;7.70;;
52470;SDS011;38382;53.160;7.026;2023-02-08T15:34:54;10.68;;;7.07;;
52470;SDS011;38382;53.160;7.026;2023-02-08T15:37:25;11.13;;;7.35;;
52470;SDS011;38382;53.160;7.026;2023-02-08T15:39:55;10.20;;;7.55;;
52470;SDS011;38382;53.160;7.026;2023-02-08T15:42:23;10.10;;;7.30;;
52470;SDS011;38382;53.160;7.026;2023-02-08T15:44:51;10.43;;;7.18;;
52470;SDS011;38382;53.160;7.026;2023-02-08T15:47:30;11.27;;;7.40;;
52470;SDS011;38382;53.160;7.026;2023-02-08T15:50:02;10.60;;;7.40;;
52470;SDS011;38382;53.160;7.026;2023-02-08T15:52:31;9.68;;;6.53;;
52470;SDS011;38382;53.160;7.026;2023-02-08T15:55:00;10.38;;;6.55;;
52470;SDS011;38382;53.160;7.026;2023-02-08T16:00:36;10.52;;;6.18;;
52470;SDS011;38382;53.160;7.026;2023-02-08T16:03:08;9.38;;;6.30;;
52470;SDS011;38382;53.160;7.026;2023-02-08T16:05:43;10.68;;;6.93;;
52470;SDS011;38382;53.160;7.026;2023-02-08T16:08:22;10.93;;;6.30;;
52470;SDS011;38382;53.160;7.026;2023-02-08T16:10:51;10.73;;;6.70;;
52470;SDS011;38382;53.160;7.026;2023-02-08T16:13:32;11.40;;;7.15;;
52470;SDS011;38382;53.160;7.026;2023-02-08T16:19:01;14.73;;;8.52;;
52470;SDS011;38382;53.160;7.026;2023-02-08T16:21:44;11.35;;;6.93;;
52470;SDS011;38382;53.160;7.026;2023-02-08T16:26:39;14.48;;;7.50;;
52470;SDS011;38382;53.160;7.026;2023-02-08T16:29:24;11.93;;;7.32;;
52470;SDS011;38382;53.160;7.026;2023-02-08T16:34:31;10.07;;;6.78;;
52470;SDS011;38382;53.160;7.026;2023-02-08T16:36:59;10.18;;;6.43;;
52470;SDS011;38382;53.160;7.026;2023-02-08T16:39:37;11.00;;;7.03;;
52470;SDS011;38382;53.160;7.026;2023-02-08T16:44:58;12.00;;;7.32;;
52470;SDS011;38382;53.160;7.026;2023-02-08T16:50:26;10.20;;;6.75;;
52470;SDS011;38382;53.160;7.026;2023-02-08T16:52:53;12.88;;;7.65;;
52470;SDS011;38382;53.160;7.026;2023-02-08T16:55:27;13.75;;;7.63;;
52470;SDS011;38382;53.160;7.026;2023-02-08T16:57:56;11.98;;;7.32;;
52470;SDS011;38382;53.160;7.026;2023-02-08T17:00:24;12.85;;;7.05;;
52470;SDS011;38382;53.160;7.026;2023-02-08T17:02:52;11.88;;;7.78;;
52470;SDS011;38382;53.160;7.026;2023-02-08T17:05:20;13.27;;;7.60;;
52470;SDS011;38382;53.160;7.026;2023-02-08T17:07:47;12.80;;;6.93;;
52470;SDS011;38382;53.160;7.026;2023-02-08T17:10:19;12.65;;;7.68;;
52470;SDS011;38382;53.160;7.026;2023-02-08T17:12:47;12.30;;;8.07;;
52470;SDS011;38382;53.160;7.026;2023-02-08T17:15:13;11.30;;;7.50;;
52470;SDS011;38382;53.160;7.026;2023-02-08T17:17:39;12.95;;;8.35;;
52470;SDS011;38382;53.160;7.026;2023-02-08T17:20:38;11.73;;;7.57;;
52470;SDS011;38382;53.160;7.026;2023-02-08T17:22:58;14.63;;;7.68;;
52470;SDS011;38382;53.160;7.026;2023-02-08T17:25:26;14.60;;;8.02;;
52470;SDS011;38382;53.160;7.026;2023-02-08T17:27:57;12.38;;;7.82;;
52470;SDS011;38382;53.160;7.026;2023-02-08T17:30:30;15.45;;;8.82;;
52470;SDS011;38382;53.160;7.026;2023-02-08T17:32:58;14.35;;;8.98;;
52470;SDS011;38382;53.160;7.026;2023-02-08T17:35:24;15.35;;;9.40;;
52470;SDS011;38382;53.160;7.026;2023-02-08T17:37:52;17.90;;;9.23;;
52470;SDS011;38382;53.160;7.026;2023-02-08T17:40:25;16.60;;;8.85;;
52470;SDS011;38382;53.160;7.026;2023-02-08T17:42:57;18.58;;;9.60;;
52470;SDS011;38382;53.160;7.026;2023-02-08T17:45:26;16.45;;;8.52;;
52470;SDS011;38382;53.160;7.026;2023-02-08T17:47:53;16.80;;;9.48;;
52470;SDS011;38382;53.160;7.026;2023-02-08T17:50:19;15.35;;;9.48;;
52470;SDS011;38382;53.160;7.026;2023-02-08T17:52:46;16.60;;;10.25;;
52470;SDS011;38382;53.160;7.026;2023-02-08T17:55:13;18.10;;;10.73;;
52470;SDS011;38382;53.160;7.026;2023-02-08T17:57:40;16.80;;;10.02;;
52470;SDS011;38382;53.160;7.026;2023-02-08T18:00:08;15.30;;;9.70;;
52470;SDS011;38382;53.160;7.026;2023-02-08T18:02:36;15.27;;;8.98;;
52470;SDS011;38382;53.160;7.026;2023-02-08T18:05:03;16.02;;;9.27;;
52470;SDS011;38382;53.160;7.026;2023-02-08T18:07:29;14.55;;;8.80;;
52470;SDS011;38382;53.160;7.026;2023-02-08T18:09:54;11.95;;;7.88;;
52470;SDS011;38382;53.160;7.026;2023-02-08T18:12:20;14.02;;;8.40;;
52470;SDS011;38382;53.160;7.026;2023-02-08T18:14:46;13.98;;;8.05;;
52470;SDS011;38382;53.160;7.026;2023-02-08T18:17:12;14.75;;;8.45;;
52470;SDS011;38382;53.160;7.026;2023-02-08T18:19:37;12.73;;;8.27;;
52470;SDS011;38382;53.160;7.026;2023-02-08T18:22:04;13.18;;;7.95;;
52470;SDS011;38382;53.160;7.026;2023-02-08T18:24:30;12.98;;;8.02;;
52470;SDS011;38382;53.160;7.026;2023-02-08T18:26:57;13.80;;;8.00;;
52470;SDS011;38382;53.160;7.026;2023-02-08T18:29:23;12.30;;;8.00;;
52470;SDS011;38382;53.160;7.026;2023-02-08T18:31:49;14.35;;;8.25;;
52470;SDS011;38382;53.160;7.026;2023-02-08T18:34:16;12.65;;;7.82;;
52470;SDS011;38382;53.160;7.026;2023-02-08T18:36:42;13.23;;;7.28;;
52470;SDS011;38382;53.160;7.026;2023-02-08T18:39:11;13.77;;;7.97;;
52470;SDS011;38382;53.160;7.026;2023-02-08T18:41:39;12.32;;;8.15;;
52470;SDS011;38382;53.160;7.026;2023-02-08T18:44:07;12.68;;;7.90;;
52470;SDS011;38382;53.160;7.026;2023-02-08T18:46:34;12.07;;;7.80;;
52470;SDS011;38382;53.160;7.026;2023-02-08T18:49:00;20.85;;;8.98;;
52470;SDS011;38382;53.160;7.026;2023-02-08T18:51:25;14.40;;;8.65;;
52470;SDS011;38382;53.160;7.026;2023-02-08T18:53:54;14.07;;;7.88;;
52470;SDS011;38382;53.160;7.026;2023-02-08T18:56:21;12.48;;;8.10;;
52470;SDS011;38382;53.160;7.026;2023-02-08T18:58:51;12.70;;;7.57;;
52470;SDS011;38382;53.160;7.026;2023-02-08T19:01:20;12.57;;;8.00;;
52470;SDS011;38382;53.160;7.026;2023-02-08T19:03:47;14.25;;;8.60;;
52470;SDS011;38382;53.160;7.026;2023-02-08T19:06:15;16.48;;;9.40;;
52470;SDS011;38382;53.160;7.026;2023-02-08T19:08:46;20.48;;;9.90;;
52470;SDS011;38382;53.160;7.026;2023-02-08T19:11:34;19.83;;;10.50;;
52470;SDS011;38382;53.160;7.026;2023-02-08T19:14:02;18.17;;;9.88;;
52470;SDS011;38382;53.160;7.026;2023-02-08T19:16:30;16.92;;;9.82;;
52470;SDS011;38382;53.160;7.026;2023-02-08T19:18:58;17.13;;;9.02;;
52470;SDS011;38382;53.160;7.026;2023-02-08T19:21:25;17.95;;;9.60;;
52470;SDS011;38382;53.160;7.026;2023-02-08T19:23:52;14.23;;;8.63;;
52470;SDS011;38382;53.160;7.026;2023-02-08T19:26:24;14.13;;;8.98;;
52470;SDS011;38382;53.160;7.026;2023-02-08T19:28:52;16.40;;;8.75;;
52470;SDS011;38382;53.160;7.026;2023-02-08T19:31:21;14.20;;;8.68;;
52470;SDS011;38382;53.160;7.026;2023-02-08T19:33:49;17.60;;;9.20;;
52470;SDS011;38382;53.160;7.026;2023-02-08T19:36:18;14.43;;;8.65;;
52470;SDS011;38382;53.160;7.026;2023-02-08T19:38:48;13.60;;;9.23;;
52470;SDS011;38382;53.160;7.026;2023-02-08T19:41:19;16.58;;;10.10;;